Aérodrome :
LOGIN :

S'inscrire | Disclaimer

   EN    FR    IT 

 










Légende :    VFR   VFR Marginal   IFR   IFR Intensif   IFR Très Intensif
Visi : 
Plafond : 
>= 8 km
>= 3000ft
5 à 8 km
1000 à 3000 ft
1500m à 5 km
500 à 1000 ft
800 à 1500m
200 à 500 ft
< 800m
< 200 ft
Symboles :   Orages  Brouillard  Fortes neiges  Fortes précipitations  Vent > 20 kt
SIGMETs :   Divers  Orages  Givrage  Turbulence  Onde Orograph.  Cendres Volcan.






- Altitude de l'aérodrome : 286 ft
- Code IATA : FFD


EGVA - RAF Fairford

DERNIER METAR :
  • 221556Z AUTO 10013KT 9999 SCT015 BKN100 08/07 A2929 RMK AO2 RAE05 SLP924 P0001 T00830072 $

METARs EXPIRÉS :
  • 221515Z AUTO 09009KT 9999 SCT041 08/07 A2930 RMK AO2 RAE05 SLP927 $
  • 221505Z AUTO 09008KT 9999 BKN042 08/07 A2930 RMK AO2 RAE05 SLP927 $
  • 221452Z AUTO 10008KT 9999 -DZ SCT043 08/07 A2930 RMK AO2 RAB10E47DZB52 SLP927 $
  • 221412Z AUTO 10009KT 9999 -RA FEW040 09/07 A2930 RMK AO2 RAB10 SLP927 $
  • 221356Z AUTO 12006KT 9999 CLR 09/07 A2931 RMK AO2 RAE1258 SLP930 P0000 T00870068 $
  • 221308Z AUTO 12006KT 9999 SCT022 SCT029 09/08 A2931 RMK AO2 RAE1258 SLP930 $

Prévision TAF périmée.



MET'MAP, la Météo Aéronautique d'un coup d'oeil ! - Copyright ORBIFLY Décembre 2007 - Disclaimer

ORBIFLY MET'MAP TEAM :

Programmation & Développement : Alexandra Zaïnal
Conception & Développement : Baudouin d'Aumeries
Co-Programmation & Développement : Marc-Olivier Méhu
Soutien technique & logistique : Manuel Goepfert

Contact : metmap@orbifly.com




SOURCES & CREDITS :

   NOAA